createdAt,value
2023-08-29T00:02:11.520Z,3.28
2023-08-29T00:04:42.963Z,3.05
2023-08-29T00:07:14.430Z,4.57
2023-08-29T00:09:47.167Z,3.63
2023-08-29T00:12:18.635Z,3.38
2023-08-29T00:14:49.873Z,4.63
2023-08-29T00:17:21.821Z,2.83
2023-08-29T00:19:53.002Z,3.72
2023-08-29T00:22:29.861Z,1.83
2023-08-29T00:25:01.236Z,1.55
2023-08-29T00:27:32.818Z,2.80
2023-08-29T00:30:04.176Z,1.65
2023-08-29T00:32:36.682Z,2.20
2023-08-29T00:35:08.168Z,3.33
2023-08-29T00:37:39.626Z,1.90
2023-08-29T00:40:12.604Z,1.75
2023-08-29T00:42:44.129Z,2.55
2023-08-29T00:45:20.970Z,1.85
2023-08-29T00:47:52.385Z,2.40
2023-08-29T00:50:23.913Z,1.58
2023-08-29T00:53:01.144Z,2.58
2023-08-29T00:55:34.226Z,2.15
2023-08-29T00:58:09.142Z,1.88
2023-08-29T01:00:41.651Z,2.35
2023-08-29T01:03:13.474Z,3.60
2023-08-29T01:05:44.779Z,3.72
2023-08-29T01:08:16.949Z,3.75
2023-08-29T01:11:06.350Z,2.80
2023-08-29T01:14:12.417Z,4.25
2023-08-29T01:17:07.482Z,2.92
2023-08-29T01:19:43.865Z,5.47
2023-08-29T01:22:41.206Z,6.07
2023-08-29T01:25:34.409Z,2.45
2023-08-29T01:28:07.755Z,3.13
2023-08-29T01:30:41.024Z,2.63
2023-08-29T01:33:12.472Z,2.63
2023-08-29T01:35:49.916Z,2.90
2023-08-29T01:38:21.121Z,3.30
2023-08-29T01:40:51.777Z,2.95
2023-08-29T01:43:22.100Z,3.38
2023-08-29T01:45:53.707Z,2.17
2023-08-29T01:48:24.842Z,1.90
2023-08-29T01:50:56.672Z,2.55
2023-08-29T01:53:31.083Z,2.40
2023-08-29T01:56:03.825Z,2.55
2023-08-29T01:58:36.515Z,2.50
2023-08-29T02:01:21.444Z,1.90
2023-08-29T02:03:57.485Z,1.42
2023-08-29T02:06:27.936Z,1.83
2023-08-29T02:08:58.067Z,1.60
2023-08-29T02:11:28.222Z,1.70
2023-08-29T02:14:01.332Z,2.75
2023-08-29T02:16:34.020Z,1.88
2023-08-29T02:19:04.899Z,2.17
2023-08-29T02:21:35.067Z,2.10
2023-08-29T02:24:05.598Z,3.55
2023-08-29T02:26:35.680Z,2.58
2023-08-29T02:29:05.525Z,1.90
2023-08-29T02:31:40.114Z,2.33
2023-08-29T02:34:10.263Z,2.17
2023-08-29T02:36:40.377Z,2.28
2023-08-29T02:39:10.424Z,1.75
2023-08-29T02:41:40.703Z,1.95
2023-08-29T02:44:10.769Z,2.25
2023-08-29T02:46:41.698Z,2.05
2023-08-29T02:49:11.801Z,2.22
2023-08-29T02:51:41.638Z,2.10
2023-08-29T02:54:11.700Z,2.28
2023-08-29T02:56:41.591Z,2.88
2023-08-29T02:59:11.653Z,2.42
2023-08-29T03:01:41.850Z,2.00
2023-08-29T03:04:12.981Z,1.92
2023-08-29T03:06:44.130Z,1.77
2023-08-29T03:09:15.475Z,1.50
2023-08-29T03:11:45.588Z,1.17
2023-08-29T03:14:16.122Z,1.50
2023-08-29T03:16:46.871Z,1.63
2023-08-29T03:19:19.003Z,1.67
2023-08-29T03:21:49.374Z,1.70
2023-08-29T03:24:19.463Z,1.45
2023-08-29T03:26:49.543Z,1.27
2023-08-29T03:29:19.633Z,2.67
2023-08-29T03:31:50.017Z,2.42
2023-08-29T03:34:20.897Z,2.50
2023-08-29T03:36:50.970Z,1.55
2023-08-29T03:39:21.060Z,2.13
2023-08-29T03:41:51.290Z,2.00
2023-08-29T03:44:21.370Z,2.20
2023-08-29T03:46:51.725Z,2.22
2023-08-29T03:49:21.756Z,3.10
2023-08-29T03:51:51.595Z,3.95
2023-08-29T03:54:21.854Z,2.20
2023-08-29T03:56:52.152Z,2.50
2023-08-29T03:59:22.227Z,2.05
2023-08-29T04:01:52.852Z,2.72
2023-08-29T04:04:24.897Z,2.83
2023-08-29T04:06:56.555Z,2.47
2023-08-29T04:09:26.622Z,1.83
2023-08-29T04:11:57.032Z,3.08
2023-08-29T04:14:27.263Z,3.25
2023-08-29T04:16:58.151Z,2.15
2023-08-29T04:19:28.629Z,2.15
2023-08-29T04:21:59.287Z,2.45
2023-08-29T04:24:30.849Z,3.38
2023-08-29T04:27:00.900Z,2.55
2023-08-29T04:29:30.965Z,7.55
2023-08-29T04:32:01.089Z,8.07
2023-08-29T04:34:31.935Z,9.68
2023-08-29T04:37:02.024Z,10.40
2023-08-29T04:39:32.097Z,14.90
2023-08-29T04:42:02.258Z,14.50
2023-08-29T04:44:32.896Z,13.43
2023-08-29T04:47:03.476Z,15.93
2023-08-29T04:49:35.493Z,18.17
2023-08-29T04:52:05.864Z,16.67
2023-08-29T04:54:36.169Z,16.35
2023-08-29T04:57:09.317Z,16.13
2023-08-29T04:59:39.505Z,15.77
2023-08-29T05:02:10.653Z,15.57
2023-08-29T05:04:40.860Z,13.68
2023-08-29T05:07:12.089Z,13.73
2023-08-29T05:09:42.260Z,15.05
2023-08-29T05:12:13.237Z,12.88
2023-08-29T05:14:43.260Z,13.80
2023-08-29T05:17:13.558Z,12.98
2023-08-29T05:19:43.990Z,12.13
2023-08-29T05:22:14.330Z,12.73
2023-08-29T05:24:44.885Z,12.82
2023-08-29T05:27:14.984Z,15.35
2023-08-29T05:29:45.104Z,9.40
2023-08-29T05:32:15.189Z,10.15
2023-08-29T05:34:45.275Z,10.55
2023-08-29T05:37:15.361Z,8.63
2023-08-29T05:39:45.372Z,9.05
2023-08-29T05:42:15.470Z,9.07
2023-08-29T05:44:45.816Z,10.38
2023-08-29T05:47:15.934Z,10.35
2023-08-29T05:49:45.996Z,11.05
2023-08-29T05:52:16.094Z,9.75
2023-08-29T05:54:46.327Z,10.70
2023-08-29T05:57:16.389Z,9.68
2023-08-29T05:59:46.480Z,8.98
2023-08-29T06:02:16.690Z,9.20
2023-08-29T06:04:46.776Z,7.20
2023-08-29T06:07:16.922Z,8.60
2023-08-29T06:09:46.970Z,5.45
2023-08-29T06:12:17.101Z,5.93
2023-08-29T06:14:47.132Z,5.45
2023-08-29T06:17:17.184Z,5.85
2023-08-29T06:19:47.387Z,5.50
2023-08-29T06:22:17.274Z,6.30
2023-08-29T06:24:47.334Z,7.20
2023-08-29T06:27:17.421Z,6.47
2023-08-29T06:29:47.845Z,6.53
2023-08-29T06:32:38.021Z,6.10
2023-08-29T06:35:09.997Z,4.38
2023-08-29T06:37:40.591Z,5.20
2023-08-29T06:40:12.463Z,7.25
2023-08-29T06:42:42.634Z,6.15
2023-08-29T06:45:12.876Z,6.97
2023-08-29T06:47:43.165Z,7.63
2023-08-29T06:50:13.865Z,6.50
2023-08-29T06:52:43.941Z,8.65
2023-08-29T06:55:13.859Z,7.05
2023-08-29T06:57:43.935Z,6.50
2023-08-29T07:00:15.297Z,5.47
2023-08-29T07:02:45.451Z,7.28
2023-08-29T07:05:15.605Z,6.57
2023-08-29T07:07:46.897Z,5.85
2023-08-29T07:10:17.045Z,7.38
2023-08-29T07:12:47.101Z,7.18
2023-08-29T07:15:17.252Z,5.88
2023-08-29T07:17:47.452Z,7.93
2023-08-29T07:20:18.221Z,7.97
2023-08-29T07:22:48.338Z,7.47
2023-08-29T07:25:22.155Z,8.18
2023-08-29T07:27:52.297Z,6.57
2023-08-29T07:30:22.376Z,8.27
2023-08-29T07:32:52.499Z,6.82
2023-08-29T07:35:22.573Z,8.20
2023-08-29T07:37:54.137Z,8.85
2023-08-29T07:40:24.315Z,8.77
2023-08-29T07:42:54.396Z,8.02
2023-08-29T07:45:24.745Z,7.10
2023-08-29T07:47:54.866Z,6.68
2023-08-29T07:50:25.088Z,7.15
2023-08-29T07:52:55.246Z,7.40
2023-08-29T07:55:25.363Z,7.38
2023-08-29T07:57:55.599Z,6.53
2023-08-29T08:00:26.857Z,5.95
2023-08-29T08:02:57.115Z,6.53
2023-08-29T08:05:27.661Z,5.95
2023-08-29T08:07:59.198Z,5.78
2023-08-29T08:10:29.535Z,5.40
2023-08-29T08:13:00.312Z,5.40
2023-08-29T08:15:30.424Z,7.43
2023-08-29T08:18:00.574Z,6.38
2023-08-29T08:20:30.818Z,6.25
2023-08-29T08:23:00.934Z,5.47
2023-08-29T08:25:31.004Z,6.05
2023-08-29T08:28:01.137Z,6.10
2023-08-29T08:30:31.255Z,7.45
2023-08-29T08:33:01.411Z,5.40
2023-08-29T08:35:33.616Z,6.18
2023-08-29T08:38:09.326Z,5.95
2023-08-29T08:40:43.709Z,5.00
2023-08-29T08:43:15.322Z,4.82
2023-08-29T08:45:46.162Z,4.85
2023-08-29T08:48:17.338Z,5.03
2023-08-29T08:50:49.988Z,5.18
2023-08-29T08:53:24.872Z,3.38
2023-08-29T08:55:55.031Z,6.03
2023-08-29T08:58:25.148Z,3.80
2023-08-29T09:00:56.780Z,5.05
2023-08-29T09:03:27.442Z,3.70
2023-08-29T09:05:57.395Z,6.28
2023-08-29T09:08:27.803Z,6.10
2023-08-29T09:11:03.509Z,3.17
2023-08-29T09:13:33.964Z,3.65
2023-08-29T09:16:07.387Z,4.95
2023-08-29T09:18:37.568Z,4.38
2023-08-29T09:21:07.631Z,4.15
2023-08-29T09:23:40.421Z,5.60
2023-08-29T09:26:14.342Z,3.50
2023-08-29T09:28:46.138Z,3.85
2023-08-29T09:31:18.787Z,4.32
2023-08-29T09:33:50.497Z,3.65
2023-08-29T09:36:23.467Z,4.13
2023-08-29T09:38:53.665Z,3.67
2023-08-29T09:41:23.947Z,3.45
2023-08-29T09:43:54.219Z,4.35
2023-08-29T09:46:28.063Z,4.05
2023-08-29T09:48:59.406Z,3.22
2023-08-29T09:51:32.606Z,4.18
2023-08-29T09:54:05.941Z,3.80
2023-08-29T09:56:37.706Z,4.65
2023-08-29T09:59:14.336Z,5.25
2023-08-29T10:01:46.936Z,7.38
2023-08-29T10:04:25.157Z,5.57
2023-08-29T10:06:59.471Z,6.68
2023-08-29T10:09:32.290Z,4.05
2023-08-29T10:12:03.870Z,5.15
2023-08-29T10:14:35.145Z,5.18
2023-08-29T10:17:10.830Z,5.32
2023-08-29T10:19:47.344Z,5.82
2023-08-29T10:22:20.103Z,4.78
2023-08-29T10:24:52.746Z,6.13
2023-08-29T10:27:22.790Z,3.88
2023-08-29T10:29:52.716Z,5.32
2023-08-29T10:32:25.359Z,5.43
2023-08-29T10:34:58.358Z,5.95
2023-08-29T10:37:31.299Z,6.03
2023-08-29T10:40:14.642Z,6.13
2023-08-29T10:43:02.839Z,5.75
2023-08-29T10:45:51.033Z,5.68
2023-08-29T10:48:40.225Z,7.38
2023-08-29T10:51:13.142Z,5.38
2023-08-29T10:53:49.476Z,4.13
2023-08-29T10:56:24.812Z,6.03
2023-08-29T10:58:56.446Z,3.50
2023-08-29T11:01:30.862Z,4.32
2023-08-29T11:04:14.052Z,4.82
2023-08-29T11:06:58.225Z,3.83
2023-08-29T11:09:28.781Z,3.20
2023-08-29T11:12:09.887Z,5.03
2023-08-29T11:15:00.276Z,3.40
2023-08-29T11:17:30.523Z,5.03
2023-08-29T11:20:08.245Z,5.10
2023-08-29T11:22:40.404Z,4.90
2023-08-29T11:25:10.978Z,6.05
2023-08-29T11:27:41.518Z,6.65
2023-08-29T11:32:54.282Z,5.55
2023-08-29T11:35:24.403Z,4.15
2023-08-29T11:37:55.434Z,4.45
2023-08-29T11:40:32.196Z,4.28
2023-08-29T11:44:12.459Z,3.65
2023-08-29T11:46:05.595Z,4.43
2023-08-29T11:51:08.858Z,3.53
2023-08-29T11:53:40.545Z,6.78
2023-08-29T11:56:12.987Z,4.53
2023-08-29T11:58:45.417Z,6.00
2023-08-29T12:01:15.523Z,7.40
2023-08-29T12:03:45.762Z,19.73
2023-08-29T12:06:16.167Z,9.52
2023-08-29T12:08:48.082Z,4.07
2023-08-29T12:16:34.272Z,5.00
2023-08-29T12:19:16.175Z,4.38
2023-08-29T12:21:56.692Z,5.53
2023-08-29T12:24:26.842Z,4.57
2023-08-29T12:26:56.629Z,4.68
2023-08-29T12:29:26.522Z,5.70
2023-08-29T12:31:56.380Z,4.60
2023-08-29T12:34:26.657Z,4.45
2023-08-29T12:36:57.017Z,4.75
2023-08-29T12:39:27.052Z,4.97
2023-08-29T12:41:56.966Z,4.63
2023-08-29T12:44:27.026Z,6.03
2023-08-29T12:46:57.052Z,4.90
2023-08-29T12:49:27.118Z,5.35
2023-08-29T12:51:57.040Z,6.20
2023-08-29T12:54:27.400Z,6.20
2023-08-29T12:56:58.152Z,5.90
2023-08-29T12:59:28.214Z,7.03
2023-08-29T13:01:58.313Z,6.03
2023-08-29T13:04:28.438Z,5.88
2023-08-29T13:06:58.627Z,5.60
2023-08-29T13:09:37.438Z,4.88
2023-08-29T13:12:10.046Z,5.40
2023-08-29T13:14:40.644Z,4.45
2023-08-29T13:17:13.548Z,4.72
2023-08-29T13:19:46.077Z,5.03
2023-08-29T13:22:16.277Z,5.10
2023-08-29T13:24:46.397Z,5.25
2023-08-29T13:27:16.452Z,6.25
2023-08-29T13:29:46.547Z,4.53
2023-08-29T13:32:16.606Z,5.60
2023-08-29T13:34:46.411Z,3.58
2023-08-29T13:37:16.458Z,2.38
2023-08-29T13:39:46.573Z,3.55
2023-08-29T13:42:17.836Z,4.07
2023-08-29T13:44:47.931Z,3.25
2023-08-29T13:47:17.951Z,3.35
2023-08-29T13:49:48.068Z,3.38
2023-08-29T13:52:18.142Z,2.85
2023-08-29T13:54:48.514Z,3.70
2023-08-29T13:57:18.665Z,3.25
2023-08-29T13:59:48.765Z,3.75
2023-08-29T14:02:18.663Z,4.30
2023-08-29T14:04:48.800Z,2.35
2023-08-29T14:07:18.907Z,3.03
2023-08-29T14:09:49.196Z,4.18
2023-08-29T14:12:19.327Z,3.20
2023-08-29T14:14:49.647Z,3.28
2023-08-29T14:17:19.771Z,3.35
2023-08-29T14:19:49.663Z,3.70
2023-08-29T14:22:19.736Z,3.08
2023-08-29T14:24:50.034Z,3.78
2023-08-29T14:27:20.111Z,2.72
2023-08-29T14:29:50.183Z,2.83
2023-08-29T14:32:20.972Z,3.90
2023-08-29T14:34:51.068Z,3.58
2023-08-29T14:37:21.129Z,2.97
2023-08-29T14:39:51.817Z,3.83
2023-08-29T14:42:22.275Z,2.70
2023-08-29T14:44:52.433Z,3.08
2023-08-29T14:47:22.494Z,3.42
2023-08-29T14:49:52.683Z,3.17
2023-08-29T14:52:24.031Z,3.30
2023-08-29T14:54:55.420Z,2.92
2023-08-29T14:57:25.520Z,3.00
2023-08-29T14:59:55.644Z,3.25
2023-08-29T15:02:25.935Z,2.53
2023-08-29T15:04:56.049Z,3.72
2023-08-29T15:07:26.154Z,3.20
2023-08-29T15:09:56.295Z,2.45
2023-08-29T15:12:26.478Z,4.03
2023-08-29T15:14:57.379Z,2.97
2023-08-29T15:17:27.739Z,3.28
2023-08-29T15:19:58.585Z,3.83
2023-08-29T15:22:28.659Z,4.25
2023-08-29T15:24:58.632Z,3.47
2023-08-29T15:27:28.681Z,3.03
2023-08-29T15:29:58.592Z,2.92
2023-08-29T15:32:28.696Z,3.30
2023-08-29T15:34:59.804Z,3.10
2023-08-29T15:37:29.867Z,4.78
2023-08-29T15:39:59.970Z,2.67
2023-08-29T15:42:32.172Z,3.42
2023-08-29T15:45:02.347Z,2.70
2023-08-29T15:47:32.240Z,3.75
2023-08-29T15:50:02.366Z,2.53
2023-08-29T15:52:32.470Z,4.15
2023-08-29T15:55:02.604Z,4.20
2023-08-29T15:57:32.724Z,2.97
2023-08-29T16:00:04.329Z,3.00
2023-08-29T16:02:36.224Z,2.72
2023-08-29T16:05:07.549Z,2.97
2023-08-29T16:07:37.582Z,2.63
2023-08-29T16:10:08.595Z,2.78
2023-08-29T16:12:38.860Z,3.30
2023-08-29T16:15:10.157Z,4.25
2023-08-29T16:20:13.130Z,2.72
2023-08-29T16:22:43.206Z,2.75
2023-08-29T16:25:13.896Z,2.28
2023-08-29T16:27:44.032Z,3.58
2023-08-29T16:30:14.793Z,3.63
2023-08-29T16:32:44.884Z,2.50
2023-08-29T16:35:15.040Z,3.03
2023-08-29T16:37:44.902Z,2.83
2023-08-29T16:40:15.007Z,3.47
2023-08-29T16:42:45.092Z,2.83
2023-08-29T16:45:15.236Z,2.63
2023-08-29T16:47:45.334Z,3.08
2023-08-29T16:50:15.386Z,2.90
2023-08-29T16:52:45.449Z,3.08
2023-08-29T16:55:15.844Z,3.45
2023-08-29T16:57:45.865Z,2.50
2023-08-29T17:00:16.323Z,2.85
2023-08-29T17:02:46.453Z,2.72
2023-08-29T17:05:16.668Z,2.63
2023-08-29T17:07:46.467Z,2.65
2023-08-29T17:10:18.294Z,2.58
2023-08-29T17:12:48.432Z,2.83
2023-08-29T17:15:18.901Z,2.60
2023-08-29T17:17:48.962Z,2.95
2023-08-29T17:20:19.458Z,2.65
2023-08-29T17:22:51.503Z,2.78
2023-08-29T17:25:21.656Z,2.72
2023-08-29T17:27:51.466Z,2.85
2023-08-29T17:30:23.015Z,3.42
2023-08-29T17:32:53.155Z,3.13
2023-08-29T17:35:23.320Z,2.78
2023-08-29T17:37:53.366Z,3.00
2023-08-29T17:40:23.553Z,3.45
2023-08-29T17:42:53.669Z,3.00
2023-08-29T17:45:23.755Z,3.25
2023-08-29T17:47:53.758Z,3.78
2023-08-29T17:50:23.925Z,2.38
2023-08-29T17:52:53.789Z,2.90
2023-08-29T17:55:23.608Z,3.72
2023-08-29T17:57:53.419Z,2.92
2023-08-29T18:00:23.706Z,3.47
2023-08-29T18:02:53.885Z,2.65
2023-08-29T18:05:25.368Z,4.57
2023-08-29T18:07:55.718Z,2.80
2023-08-29T18:10:25.608Z,2.90
2023-08-29T18:12:56.133Z,4.53
2023-08-29T18:15:26.457Z,3.17
2023-08-29T18:18:00.727Z,3.05
2023-08-29T18:20:30.854Z,2.63
2023-08-29T18:23:01.329Z,2.50
2023-08-29T18:25:32.150Z,3.05
2023-08-29T18:28:02.225Z,2.95
2023-08-29T18:30:32.149Z,3.22
2023-08-29T18:33:08.472Z,2.65
2023-08-29T18:35:39.000Z,3.80
2023-08-29T18:38:09.464Z,2.63
2023-08-29T18:43:09.966Z,2.90
2023-08-29T18:45:40.022Z,3.83
2023-08-29T18:48:10.986Z,3.22
2023-08-29T18:50:41.982Z,3.53
2023-08-29T18:53:12.054Z,3.85
2023-08-29T18:55:46.169Z,2.85
2023-08-29T18:58:16.205Z,3.40
2023-08-29T19:00:50.069Z,3.72
2023-08-29T19:03:21.049Z,2.97
2023-08-29T19:08:20.571Z,3.13
2023-08-29T19:10:51.534Z,3.50
2023-08-29T19:13:22.548Z,3.33
2023-08-29T19:15:53.683Z,3.40
2023-08-29T19:18:24.558Z,3.25
2023-08-29T19:20:54.708Z,3.78
2023-08-29T19:23:26.793Z,3.78
2023-08-29T19:25:57.251Z,2.92
2023-08-29T19:28:27.356Z,2.50
2023-08-29T19:30:58.102Z,4.05
2023-08-29T19:33:28.303Z,3.28
2023-08-29T19:35:58.253Z,3.00
2023-08-29T19:38:28.354Z,2.85
2023-08-29T19:40:58.786Z,2.45
2023-08-29T19:43:28.849Z,4.03
2023-08-29T19:45:58.894Z,4.97
2023-08-29T19:48:29.086Z,3.88
2023-08-29T19:51:00.150Z,5.03
2023-08-29T19:53:30.437Z,5.00
2023-08-29T19:56:00.579Z,3.70
2023-08-29T19:58:30.452Z,4.32
2023-08-29T20:01:08.419Z,4.53
2023-08-29T20:03:39.344Z,3.67
2023-08-29T20:06:09.431Z,2.83
2023-08-29T20:08:40.081Z,2.47
2023-08-29T20:11:10.285Z,3.13
2023-08-29T20:13:40.368Z,3.42
2023-08-29T20:16:10.474Z,4.05
2023-08-29T20:18:41.941Z,2.70
2023-08-29T20:21:12.019Z,3.22
2023-08-29T20:23:55.461Z,2.58
2023-08-29T20:26:30.051Z,3.05
2023-08-29T20:29:01.552Z,2.92
2023-08-29T20:31:31.699Z,3.70
2023-08-29T20:34:01.661Z,3.05
2023-08-29T20:36:31.784Z,2.05
2023-08-29T20:39:01.657Z,3.22
2023-08-29T20:41:31.508Z,2.38
2023-08-29T20:44:01.348Z,5.05
2023-08-29T20:46:31.930Z,4.05
2023-08-29T20:49:02.046Z,3.45
2023-08-29T20:51:32.252Z,2.50
2023-08-29T20:54:02.394Z,4.50
2023-08-29T20:56:32.414Z,4.43
2023-08-29T20:59:02.518Z,4.78
2023-08-29T21:01:32.851Z,5.18
2023-08-29T21:04:03.075Z,4.13
2023-08-29T21:06:33.278Z,4.15
2023-08-29T21:09:04.361Z,3.72
2023-08-29T21:11:34.456Z,4.93
2023-08-29T21:14:04.537Z,4.53
2023-08-29T21:16:34.674Z,3.85
2023-08-29T21:19:05.128Z,4.68
2023-08-29T21:21:35.230Z,3.97
2023-08-29T21:24:06.416Z,4.63
2023-08-29T21:26:37.609Z,3.88
2023-08-29T21:29:07.974Z,4.75
2023-08-29T21:31:38.081Z,4.90
2023-08-29T21:34:08.173Z,4.78
2023-08-29T21:36:40.440Z,4.72
2023-08-29T21:39:14.478Z,4.15
2023-08-29T21:41:44.621Z,3.58
2023-08-29T21:44:15.412Z,3.88
2023-08-29T21:46:46.318Z,3.83
2023-08-29T21:49:16.439Z,4.10
2023-08-29T21:51:46.548Z,3.30
2023-08-29T21:54:16.970Z,5.68
2023-08-29T21:56:47.041Z,3.53
2023-08-29T21:59:16.908Z,4.53
2023-08-29T22:01:47.045Z,4.22
2023-08-29T22:04:17.464Z,4.80
2023-08-29T22:06:47.547Z,5.68
2023-08-29T22:09:17.768Z,4.13
2023-08-29T22:11:47.820Z,5.75
2023-08-29T22:14:17.856Z,3.55
2023-08-29T22:16:47.918Z,5.65
2023-08-29T22:19:18.365Z,3.70
2023-08-29T22:21:48.476Z,3.75
2023-08-29T22:24:18.512Z,4.88
2023-08-29T22:26:48.593Z,5.55
2023-08-29T22:29:18.635Z,6.35
2023-08-29T22:31:48.510Z,4.20
2023-08-29T22:34:18.642Z,4.45
2023-08-29T22:36:48.618Z,5.90
2023-08-29T22:39:18.775Z,6.22
2023-08-29T22:41:48.770Z,4.28
2023-08-29T22:44:19.599Z,6.07
2023-08-29T22:46:50.392Z,6.35
2023-08-29T22:49:22.007Z,7.13
2023-08-29T22:51:54.674Z,5.55
2023-08-29T22:54:25.733Z,5.90
2023-08-29T22:56:59.086Z,6.50
2023-08-29T22:59:31.499Z,10.00
2023-08-29T23:02:02.880Z,11.20
2023-08-29T23:04:34.182Z,6.82
2023-08-29T23:07:07.737Z,5.20
2023-08-29T23:09:39.791Z,5.43
2023-08-29T23:12:10.774Z,4.65
2023-08-29T23:14:41.974Z,5.43
2023-08-29T23:17:12.954Z,5.25
2023-08-29T23:19:46.854Z,5.90
2023-08-29T23:22:18.535Z,6.18
2023-08-29T23:24:50.943Z,5.15
2023-08-29T23:27:23.244Z,5.82
2023-08-29T23:29:54.582Z,6.30
2023-08-29T23:32:26.371Z,6.03
2023-08-29T23:35:00.514Z,5.35
2023-08-29T23:37:31.722Z,5.35
2023-08-29T23:40:03.249Z,6.30
2023-08-29T23:42:38.045Z,5.65
2023-08-29T23:45:11.446Z,5.43
2023-08-29T23:47:42.740Z,5.93
2023-08-29T23:50:14.147Z,6.68
2023-08-29T23:52:45.204Z,5.38
2023-08-29T23:55:16.411Z,8.07
2023-08-29T23:57:47.675Z,6.65
